Time;durP1;ratioP1;P1;durP2;ratioP2;P2;SDS_P1;SDS_P2;PMS_P1;PMS_P2;Temp;Humidity;BMP_temperature;BMP_pressure;BME280_temperature;BME280_humidity;BME280_pressure;Samples;Min_cycle;Max_cycle;Signal;HPM_P1;HPM_P2
2023/10/29 00:01:53;;;;;;;12.55;5.70;;;;;;;;;;10372143;28;20677;-82
2023/10/29 00:06:54;;;;;;;10.75;5.10;;;;;;;;;;10359878;28;20072;-82
2023/10/29 00:11:56;;;;;;;12.60;5.85;;;;;;;;;;10364659;28;20030;-81
2023/10/29 00:17:03;;;;;;;11.05;5.72;;;;;;;;;;10370143;28;20048;-81
2023/10/29 00:22:04;;;;;;;15.30;6.65;;;;;;;;;;10376124;28;20412;-83
2023/10/29 00:27:05;;;;;;;12.45;5.90;;;;;;;;;;10361781;28;20038;-82
2023/10/29 00:32:06;;;;;;;13.82;6.85;;;;;;;;;;10355595;28;20409;-81
2023/10/29 00:37:07;;;;;;;19.67;8.38;;;;;;;;;;10361470;28;20145;-81
2023/10/29 00:42:10;;;;;;;19.33;9.60;;;;;;;;;;10343556;28;20034;-81
2023/10/29 00:47:12;;;;;;;15.13;8.52;;;;;;;;;;10359954;28;20034;-82
2023/10/29 00:52:13;;;;;;;22.58;11.00;;;;;;;;;;10360190;28;20042;-82
2023/10/29 00:57:14;;;;;;;23.25;11.63;;;;;;;;;;10360361;28;20099;-83
2023/10/29 01:02:22;;;;;;;21.38;10.35;;;;;;;;;;10366061;28;20127;-81
2023/10/29 01:07:23;;;;;;;23.45;12.77;;;;;;;;;;10372142;28;20033;-81
2023/10/29 01:12:27;;;;;;;19.95;11.43;;;;;;;;;;10373368;28;20034;-81
2023/10/29 01:17:28;;;;;;;23.98;12.98;;;;;;;;;;10368081;28;20030;-81
2023/10/29 01:22:29;;;;;;;19.90;10.77;;;;;;;;;;10376426;28;20037;-81
2023/10/29 01:27:30;;;;;;;16.50;8.55;;;;;;;;;;10383183;28;20033;-82
2023/10/29 01:32:32;;;;;;;19.27;8.80;;;;;;;;;;10367127;28;20056;-81
2023/10/29 01:37:33;;;;;;;13.02;6.88;;;;;;;;;;10368369;28;20527;-81
2023/10/29 01:42:34;;;;;;;15.63;7.32;;;;;;;;;;10375807;28;20621;-83
2023/10/29 01:47:35;;;;;;;16.10;6.80;;;;;;;;;;10371372;28;20121;-80
2023/10/29 01:52:39;;;;;;;14.88;8.27;;;;;;;;;;10366128;28;20473;-81
2023/10/29 01:57:41;;;;;;;18.80;10.20;;;;;;;;;;10373408;28;20047;-82
2023/10/29 02:02:44;;;;;;;18.60;10.30;;;;;;;;;;10371474;28;20080;-81
2023/10/29 02:07:45;;;;;;;14.27;8.07;;;;;;;;;;10371998;28;20037;-81
2023/10/29 02:12:46;;;;;;;15.10;8.55;;;;;;;;;;10374971;28;20025;-81
2023/10/29 02:17:47;;;;;;;14.93;8.20;;;;;;;;;;10365994;28;20037;-81
2023/10/29 02:22:48;;;;;;;14.35;7.35;;;;;;;;;;10370293;28;20029;-82
2023/10/29 02:27:49;;;;;;;15.40;8.25;;;;;;;;;;10367227;28;20026;-81
2023/10/29 02:32:50;;;;;;;15.60;8.95;;;;;;;;;;10365668;28;20050;-81
2023/10/29 02:37:51;;;;;;;17.63;7.82;;;;;;;;;;10376593;28;20092;-83
2023/10/29 02:42:52;;;;;;;16.52;9.35;;;;;;;;;;10347256;28;20026;-82
2023/10/29 02:47:54;;;;;;;15.27;9.17;;;;;;;;;;10368432;28;20022;-80
2023/10/29 02:52:55;;;;;;;21.17;11.17;;;;;;;;;;10368277;28;20116;-82
2023/10/29 02:57:56;;;;;;;20.30;11.15;;;;;;;;;;10354899;28;20030;-81
2023/10/29 03:02:57;;;;;;;20.27;11.33;;;;;;;;;;10362889;28;20030;-82
2023/10/29 03:07:59;;;;;;;20.10;9.65;;;;;;;;;;10362739;28;20034;-81
2023/10/29 03:13:00;;;;;;;19.10;9.37;;;;;;;;;;10363343;28;20022;-81
2023/10/29 03:18:01;;;;;;;11.90;7.30;;;;;;;;;;10363311;28;20030;-82
2023/10/29 03:23:02;;;;;;;20.50;8.75;;;;;;;;;;10366688;28;20057;-81
2023/10/29 03:28:03;;;;;;;16.60;8.38;;;;;;;;;;10362891;28;20088;-81
2023/10/29 03:33:05;;;;;;;12.90;6.80;;;;;;;;;;10359465;28;20085;-81
2023/10/29 03:38:06;;;;;;;13.18;8.32;;;;;;;;;;10361262;28;20044;-81
2023/10/29 03:43:07;;;;;;;20.48;10.77;;;;;;;;;;10350915;28;20781;-82
2023/10/29 03:48:08;;;;;;;15.60;8.95;;;;;;;;;;10359284;28;20033;-82
2023/10/29 03:53:09;;;;;;;23.15;11.32;;;;;;;;;;10359278;28;20068;-82
2023/10/29 03:58:10;;;;;;;22.13;11.13;;;;;;;;;;10351242;28;20128;-81
2023/10/29 04:03:11;;;;;;;26.45;14.10;;;;;;;;;;10353994;28;20092;-81
2023/10/29 04:08:12;;;;;;;20.85;13.13;;;;;;;;;;10374171;28;20041;-82
2023/10/29 04:13:13;;;;;;;32.53;16.40;;;;;;;;;;10360508;28;20038;-82
2023/10/29 04:18:14;;;;;;;22.35;12.80;;;;;;;;;;10362213;28;20107;-81
2023/10/29 04:23:15;;;;;;;91.22;44.50;;;;;;;;;;10362130;28;20076;-82
2023/10/29 04:28:16;;;;;;;90.78;45.92;;;;;;;;;;10360581;28;20842;-81
2023/10/29 04:33:17;;;;;;;63.83;33.72;;;;;;;;;;10360436;28;20111;-82
2023/10/29 04:38:18;;;;;;;64.55;34.35;;;;;;;;;;10353300;28;20089;-82
2023/10/29 04:43:19;;;;;;;48.20;25.52;;;;;;;;;;10369046;28;20906;-81
2023/10/29 04:48:20;;;;;;;44.78;24.15;;;;;;;;;;10372700;28;20725;-82
2023/10/29 04:53:21;;;;;;;52.83;28.65;;;;;;;;;;10377852;28;20728;-83
2023/10/29 04:58:22;;;;;;;43.60;22.90;;;;;;;;;;10372136;28;20049;-82
2023/10/29 05:03:23;;;;;;;31.80;18.13;;;;;;;;;;10366559;28;20026;-81
2023/10/29 05:08:24;;;;;;;37.67;19.83;;;;;;;;;;10366684;28;20127;-86
2023/10/29 05:13:25;;;;;;;31.80;16.03;;;;;;;;;;10362560;28;20075;-81
2023/10/29 05:18:26;;;;;;;36.70;19.10;;;;;;;;;;10378752;28;20041;-82
2023/10/29 05:23:34;;;;;;;24.93;14.43;;;;;;;;;;10399528;28;20091;-83
2023/10/29 05:28:35;;;;;;;23.37;14.33;;;;;;;;;;10394377;28;20041;-83
2023/10/29 05:33:37;;;;;;;44.60;23.17;;;;;;;;;;10381777;28;20045;-81
2023/10/29 05:38:38;;;;;;;44.00;25.10;;;;;;;;;;10368663;28;20045;-82
2023/10/29 05:43:40;;;;;;;53.57;30.73;;;;;;;;;;10394158;28;20449;-82
2023/10/29 05:48:41;;;;;;;57.40;30.30;;;;;;;;;;10375789;28;20030;-82
2023/10/29 05:53:43;;;;;;;47.73;25.63;;;;;;;;;;10374734;28;20128;-82
2023/10/29 05:58:45;;;;;;;48.80;23.57;;;;;;;;;;10389831;28;20549;-84
2023/10/29 06:03:46;;;;;;;44.00;24.47;;;;;;;;;;10392320;28;20038;-81
2023/10/29 06:08:47;;;;;;;49.20;25.37;;;;;;;;;;10404633;28;20483;-82
2023/10/29 06:13:48;;;;;;;30.10;19.20;;;;;;;;;;10391468;28;20041;-81
2023/10/29 06:18:49;;;;;;;35.13;19.47;;;;;;;;;;10369501;28;20514;-82
2023/10/29 06:23:50;;;;;;;34.20;20.10;;;;;;;;;;10357557;28;20033;-81
2023/10/29 06:28:51;;;;;;;43.60;21.67;;;;;;;;;;10365748;28;20065;-81
2023/10/29 06:33:52;;;;;;;48.63;27.93;;;;;;;;;;10351637;28;20049;-82
2023/10/29 06:38:53;;;;;;;35.53;23.37;;;;;;;;;;10364951;28;20493;-85
2023/10/29 06:43:54;;;;;;;46.40;25.90;;;;;;;;;;10364511;28;20037;-81
2023/10/29 06:48:55;;;;;;;34.20;23.20;;;;;;;;;;10363936;28;20049;-82
2023/10/29 06:53:56;;;;;;;49.90;33.07;;;;;;;;;;10364506;28;20080;-81
2023/10/29 06:58:57;;;;;;;38.45;25.63;;;;;;;;;;10363037;28;20100;-81
2023/10/29 07:04:06;;;;;;;50.95;35.67;;;;;;;;;;10366631;28;20401;-81
2023/10/29 07:09:07;;;;;;;40.75;27.88;;;;;;;;;;10367907;28;20440;-83
2023/10/29 07:14:09;;;;;;;29.27;16.60;;;;;;;;;;10364737;28;20087;-84
2023/10/29 07:19:10;;;;;;;28.80;16.70;;;;;;;;;;10364154;28;20034;-82
2023/10/29 07:24:12;;;;;;;28.50;17.48;;;;;;;;;;10371790;28;20030;-82
2023/10/29 07:29:13;;;;;;;32.80;22.98;;;;;;;;;;10365310;28;20033;-82
2023/10/29 07:34:16;;;;;;;35.20;22.83;;;;;;;;;;10367941;28;20064;-85
2023/10/29 07:39:17;;;;;;;26.52;17.40;;;;;;;;;;10362293;28;20112;-80
2023/10/29 07:44:18;;;;;;;23.20;15.07;;;;;;;;;;10367366;28;20493;-82
2023/10/29 07:49:20;;;;;;;27.98;15.07;;;;;;;;;;10376701;28;20042;-82
2023/10/29 07:54:21;;;;;;;19.85;11.95;;;;;;;;;;10357989;28;20026;-86
2023/10/29 07:59:23;;;;;;;17.52;7.95;;;;;;;;;;10363048;28;20033;-83
2023/10/29 08:04:24;;;;;;;13.35;7.97;;;;;;;;;;10374248;28;20084;-84
2023/10/29 08:09:25;;;;;;;17.63;11.98;;;;;;;;;;10361787;28;20022;-82
2023/10/29 08:14:26;;;;;;;12.52;8.18;;;;;;;;;;10362493;28;20782;-82
2023/10/29 08:19:27;;;;;;;12.55;8.55;;;;;;;;;;10374648;28;20061;-83
2023/10/29 08:24:35;;;;;;;15.48;9.30;;;;;;;;;;10368344;28;20040;-82
2023/10/29 08:29:38;;;;;;;13.60;9.85;;;;;;;;;;10365193;28;20053;-84
2023/10/29 08:34:39;;;;;;;31.60;16.08;;;;;;;;;;10361589;28;20058;-85
2023/10/29 08:39:40;;;;;;;17.00;10.25;;;;;;;;;;10361766;28;20398;-82
2023/10/29 08:44:41;;;;;;;16.17;8.70;;;;;;;;;;10344147;28;20037;-83
2023/10/29 08:49:42;;;;;;;16.15;9.38;;;;;;;;;;10371454;28;20029;-79
2023/10/29 08:54:44;;;;;;;16.00;7.32;;;;;;;;;;10369795;28;20493;-87
2023/10/29 08:59:45;;;;;;;16.08;7.95;;;;;;;;;;10361833;28;20046;-86
2023/10/29 09:04:47;;;;;;;10.32;7.22;;;;;;;;;;10372887;28;20392;-86
2023/10/29 09:09:48;;;;;;;11.50;6.88;;;;;;;;;;10357978;28;20033;-85
2023/10/29 09:14:49;;;;;;;16.08;6.93;;;;;;;;;;10363822;28;20413;-83
2023/10/29 09:19:50;;;;;;;13.77;8.00;;;;;;;;;;10370651;28;20474;-84
2023/10/29 09:24:51;;;;;;;10.60;6.00;;;;;;;;;;10355477;28;20026;-81
2023/10/29 09:29:52;;;;;;;9.85;5.95;;;;;;;;;;10368992;28;20124;-83
2023/10/29 09:34:54;;;;;;;7.50;3.75;;;;;;;;;;10373881;28;20088;-84
2023/10/29 09:39:55;;;;;;;6.25;3.90;;;;;;;;;;10368632;28;20053;-83
2023/10/29 09:44:58;;;;;;;4.43;2.17;;;;;;;;;;10375067;28;20029;-82
2023/10/29 09:49:59;;;;;;;5.15;3.03;;;;;;;;;;10367498;28;20038;-83
2023/10/29 09:55:01;;;;;;;5.85;2.95;;;;;;;;;;10367325;28;20038;-82
2023/10/29 10:00:02;;;;;;;4.50;2.42;;;;;;;;;;10368022;28;20434;-84
2023/10/29 10:05:05;;;;;;;4.15;2.25;;;;;;;;;;10379049;28;20120;-82
2023/10/29 10:10:06;;;;;;;3.75;1.70;;;;;;;;;;10367494;28;20029;-82
2023/10/29 10:15:08;;;;;;;5.10;1.90;;;;;;;;;;10366700;28;20034;-84
2023/10/29 10:20:11;;;;;;;4.82;2.20;;;;;;;;;;10379480;28;20034;-84
2023/10/29 10:25:17;;;;;;;4.85;2.83;;;;;;;;;;10347294;28;20030;-84
2023/10/29 10:30:37;;;;;;;11.60;6.47;;;;;;;;;;10368562;28;20026;-83
2023/10/29 10:35:42;;;;;;;4.82;3.35;;;;;;;;;;10348230;28;20073;-84
2023/10/29 10:40:44;;;;;;;7.07;2.97;;;;;;;;;;10361324;28;20129;-86
2023/10/29 10:45:52;;;;;;;6.00;3.38;;;;;;;;;;10343037;28;20053;-82
2023/10/29 10:50:54;;;;;;;4.00;3.00;;;;;;;;;;10383797;28;20025;-80
2023/10/29 10:55:55;;;;;;;8.43;3.80;;;;;;;;;;10397468;28;20045;-83
2023/10/29 11:00:56;;;;;;;8.05;4.00;;;;;;;;;;10379416;28;20108;-83
2023/10/29 11:06:00;;;;;;;13.02;6.47;;;;;;;;;;10389673;28;20036;-84
2023/10/29 11:11:02;;;;;;;6.50;4.32;;;;;;;;;;10396091;28;20026;-81
2023/10/29 11:16:06;;;;;;;4.35;2.67;;;;;;;;;;10375187;28;20037;-81
2023/10/29 11:21:07;;;;;;;6.38;2.88;;;;;;;;;;10338305;28;20053;-80
2023/10/29 11:26:22;;;;;;;4.65;2.65;;;;;;;;;;10390178;28;20061;-80
2023/10/29 11:31:30;;;;;;;3.60;2.15;;;;;;;;;;10382987;28;20337;-84
2023/10/29 11:36:33;;;;;;;9.00;2.72;;;;;;;;;;10375829;28;20065;-82
2023/10/29 11:41:38;;;;;;;3.47;1.63;;;;;;;;;;10396238;28;20033;-84
2023/10/29 11:46:39;;;;;;;;;;;;;;;;;;10387595;28;20466;-82
2023/10/29 11:51:54;;;;;;;5.65;1.98;;;;;;;;;;10388581;28;19928;-83
2023/10/29 11:56:57;;;;;;;3.47;1.35;;;;;;;;;;10372622;28;20124;-84
2023/10/29 12:01:59;;;;;;;3.83;1.40;;;;;;;;;;10374644;28;20172;-82
2023/10/29 12:07:00;;;;;;;4.25;1.20;;;;;;;;;;10356070;28;20030;-80
2023/10/29 12:12:08;;;;;;;6.30;1.48;;;;;;;;;;10393539;28;20079;-83
2023/10/29 12:17:10;;;;;;;2.28;1.15;;;;;;;;;;10371482;28;20061;-83
2023/10/29 12:22:15;;;;;;;1.73;1.20;;;;;;;;;;10362829;28;20121;-81
2023/10/29 12:27:16;;;;;;;3.22;1.40;;;;;;;;;;10363082;28;20030;-81
2023/10/29 12:32:18;;;;;;;2.80;1.50;;;;;;;;;;10357091;28;20500;-80
2023/10/29 12:37:37;;;;;;;4.45;1.45;;;;;;;;;;10377832;28;20026;-80
2023/10/29 12:42:56;;;;;;;3.10;1.23;;;;;;;;;;10383214;28;20042;-80
2023/10/29 12:48:16;;;;;;;3.80;1.58;;;;;;;;;;10383222;28;20064;-80
2023/10/29 12:53:21;;;;;;;2.72;1.35;;;;;;;;;;10392096;28;20045;-82
2023/10/29 12:58:23;;;;;;;2.67;1.48;;;;;;;;;;10393388;28;20041;-78
2023/10/29 13:03:25;;;;;;;2.40;1.70;;;;;;;;;;10400074;28;20116;-81
2023/10/29 13:08:26;;;;;;;6.15;1.65;;;;;;;;;;10397744;28;20541;-81
2023/10/29 13:13:27;;;;;;;4.00;1.98;;;;;;;;;;10376985;28;20021;-79
2023/10/29 13:18:28;;;;;;;4.70;1.58;;;;;;;;;;10371531;28;20046;-82
2023/10/29 13:23:29;;;;;;;3.95;1.73;;;;;;;;;;10355706;28;20037;-80
2023/10/29 13:28:30;;;;;;;5.22;1.80;;;;;;;;;;10365267;28;20113;-80
2023/10/29 13:33:32;;;;;;;3.65;1.58;;;;;;;;;;10380480;28;20430;-81
2023/10/29 13:38:34;;;;;;;4.15;1.67;;;;;;;;;;10366818;28;20045;-79
2023/10/29 13:43:35;;;;;;;4.15;1.40;;;;;;;;;;10367730;28;20041;-79
2023/10/29 13:48:36;;;;;;;3.80;1.60;;;;;;;;;;10362582;28;20085;-78
2023/10/29 13:53:37;;;;;;;6.32;2.08;;;;;;;;;;10374309;28;20030;-78
2023/10/29 13:58:39;;;;;;;4.53;2.58;;;;;;;;;;10378456;28;20068;-79
2023/10/29 14:03:40;;;;;;;6.20;3.10;;;;;;;;;;10375634;28;20037;-79
2023/10/29 14:08:41;;;;;;;4.85;2.42;;;;;;;;;;10370937;28;20715;-79
2023/10/29 14:13:42;;;;;;;9.45;2.42;;;;;;;;;;10375839;28;20072;-79
2023/10/29 14:18:43;;;;;;;7.35;3.28;;;;;;;;;;10360746;28;20091;-79
2023/10/29 14:23:44;;;;;;;4.35;2.13;;;;;;;;;;10361983;28;20079;-79
2023/10/29 14:28:45;;;;;;;4.95;2.50;;;;;;;;;;10368171;28;20026;-81
2023/10/29 14:34:06;;;;;;;5.72;2.25;;;;;;;;;;10376784;28;20054;-80
2023/10/29 14:39:07;;;;;;;7.55;2.20;;;;;;;;;;10367375;28;20099;-79
2023/10/29 14:44:09;;;;;;;4.30;2.60;;;;;;;;;;10361801;28;20116;-80
2023/10/29 14:49:10;;;;;;;5.60;2.70;;;;;;;;;;10357183;28;20076;-78
2023/10/29 14:54:12;;;;;;;6.20;2.78;;;;;;;;;;10363299;28;20034;-79
2023/10/29 14:59:13;;;;;;;3.25;2.30;;;;;;;;;;10383676;28;20045;-80
2023/10/29 15:04:14;;;;;;;11.48;5.03;;;;;;;;;;10364395;28;20064;-78
2023/10/29 15:09:15;;;;;;;16.48;8.52;;;;;;;;;;10365196;28;20049;-80
2023/10/29 15:14:16;;;;;;;12.48;6.03;;;;;;;;;;10374202;28;20030;-78
2023/10/29 15:19:17;;;;;;;23.10;13.55;;;;;;;;;;10360656;28;20537;-81
2023/10/29 15:24:18;;;;;;;11.52;5.53;;;;;;;;;;10358340;28;20107;-80
2023/10/29 15:29:19;;;;;;;8.57;4.20;;;;;;;;;;10370095;28;20091;-80
2023/10/29 15:34:21;;;;;;;14.20;6.43;;;;;;;;;;10371032;28;20176;-79
2023/10/29 15:39:22;;;;;;;13.50;6.97;;;;;;;;;;10362913;28;20061;-79
2023/10/29 15:44:23;;;;;;;10.40;4.18;;;;;;;;;;10374904;28;20050;-79
2023/10/29 15:49:24;;;;;;;10.05;4.40;;;;;;;;;;10353724;28;20030;-80
2023/10/29 15:54:27;;;;;;;9.00;3.90;;;;;;;;;;10360896;28;20498;-80
2023/10/29 15:59:28;;;;;;;16.17;7.75;;;;;;;;;;10362767;28;20136;-78
2023/10/29 16:04:29;;;;;;;10.52;6.00;;;;;;;;;;10362296;28;20021;-79
2023/10/29 16:09:32;;;;;;;31.38;21.10;;;;;;;;;;10369100;28;20022;-77
2023/10/29 16:14:33;;;;;;;12.57;8.05;;;;;;;;;;10364537;28;20528;-79
2023/10/29 16:19:34;;;;;;;40.40;30.38;;;;;;;;;;10351469;28;20475;-80
2023/10/29 16:24:35;;;;;;;43.25;29.20;;;;;;;;;;10356674;28;20037;-80
2023/10/29 16:29:37;;;;;;;10.55;6.38;;;;;;;;;;10366222;28;20026;-79
2023/10/29 16:34:39;;;;;;;11.73;5.63;;;;;;;;;;10369277;28;20061;-78
2023/10/29 16:39:40;;;;;;;11.68;6.20;;;;;;;;;;10367905;28;20068;-80
2023/10/29 16:44:41;;;;;;;10.30;5.43;;;;;;;;;;10369196;28;20187;-81
2023/10/29 16:49:46;;;;;;;8.48;4.57;;;;;;;;;;10374043;28;20474;-79
2023/10/29 16:54:47;;;;;;;;;;;;;;;;;;10365674;28;20037;-79
2023/10/29 16:59:48;;;;;;;8.25;4.03;;;;;;;;;;10368845;28;20475;-79
2023/10/29 17:04:51;;;;;;;8.45;4.55;;;;;;;;;;10384032;28;20450;-79
2023/10/29 17:09:55;;;;;;;8.77;4.07;;;;;;;;;;10376773;28;20084;-79
2023/10/29 17:14:56;;;;;;;6.80;3.90;;;;;;;;;;10359506;28;20469;-81
2023/10/29 17:19:57;;;;;;;6.88;3.53;;;;;;;;;;10360375;28;20042;-81
2023/10/29 17:25:03;;;;;;;7.15;3.72;;;;;;;;;;10384242;28;20706;-82
2023/10/29 17:30:04;;;;;;;;;;;;;;;;;;10384551;28;20092;-80
2023/10/29 17:35:11;;;;;;;8.95;4.70;;;;;;;;;;10379696;28;19918;-80
2023/10/29 17:40:12;;;;;;;6.85;3.78;;;;;;;;;;10361455;28;20069;-82
2023/10/29 17:45:16;;;;;;;9.05;4.30;;;;;;;;;;10347100;28;20034;-82
2023/10/29 17:50:17;;;;;;;8.10;3.92;;;;;;;;;;10373636;28;20058;-80
2023/10/29 17:55:18;;;;;;;7.78;3.70;;;;;;;;;;10376847;28;20045;-81
2023/10/29 18:00:19;;;;;;;14.45;6.40;;;;;;;;;;10366212;28;20125;-80
2023/10/29 18:05:21;;;;;;;12.30;6.18;;;;;;;;;;10375814;28;20080;-80
2023/10/29 18:10:23;;;;;;;12.63;5.30;;;;;;;;;;10368137;28;20033;-81
2023/10/29 18:15:24;;;;;;;9.70;5.30;;;;;;;;;;10370297;28;20073;-77
2023/10/29 18:20:26;;;;;;;12.98;6.05;;;;;;;;;;10352542;28;20034;-79
2023/10/29 18:25:27;;;;;;;38.38;19.48;;;;;;;;;;10360940;28;20022;-80
2023/10/29 18:30:35;;;;;;;26.92;15.80;;;;;;;;;;10350572;28;20021;-78
2023/10/29 18:35:36;;;;;;;17.42;8.43;;;;;;;;;;10364996;28;20571;-78
2023/10/29 18:40:39;;;;;;;11.80;6.50;;;;;;;;;;10372718;28;20077;-78
2023/10/29 18:45:40;;;;;;;14.85;5.93;;;;;;;;;;10379335;28;20025;-79
2023/10/29 18:50:41;;;;;;;12.48;6.18;;;;;;;;;;10366541;28;20294;-78
2023/10/29 18:55:42;;;;;;;25.60;12.52;;;;;;;;;;10369601;28;20021;-78
2023/10/29 19:00:43;;;;;;;18.40;10.60;;;;;;;;;;10373582;28;20037;-77
2023/10/29 19:05:44;;;;;;;22.23;11.90;;;;;;;;;;10369117;28;20070;-78
2023/10/29 19:10:45;;;;;;;16.25;9.82;;;;;;;;;;10362476;28;20026;-78
2023/10/29 19:15:52;;;;;;;32.17;18.20;;;;;;;;;;10362723;28;20032;-80
2023/10/29 19:20:53;;;;;;;18.40;9.30;;;;;;;;;;10362447;28;20030;-78
2023/10/29 19:25:56;;;;;;;25.65;12.15;;;;;;;;;;10361285;28;20030;-77
2023/10/29 19:30:58;;;;;;;25.13;13.38;;;;;;;;;;10354182;28;20096;-77
2023/10/29 19:35:59;;;;;;;45.53;25.05;;;;;;;;;;10376905;28;20493;-76
2023/10/29 19:41:00;;;;;;;41.25;24.50;;;;;;;;;;10369787;28;20029;-78
2023/10/29 19:46:03;;;;;;;28.02;16.00;;;;;;;;;;10362025;28;20030;-79
2023/10/29 19:51:04;;;;;;;24.73;13.73;;;;;;;;;;10361470;28;20046;-77
2023/10/29 19:56:06;;;;;;;27.85;12.55;;;;;;;;;;10361882;28;20029;-78
2023/10/29 20:01:08;;;;;;;26.52;12.77;;;;;;;;;;10362892;28;20052;-78
2023/10/29 20:06:10;;;;;;;28.23;13.70;;;;;;;;;;10370528;28;20032;-77
2023/10/29 20:11:14;;;;;;;25.27;13.70;;;;;;;;;;10362935;28;20449;-78
2023/10/29 20:16:15;;;;;;;26.40;13.98;;;;;;;;;;10367358;28;20381;-79
2023/10/29 20:21:18;;;;;;;24.48;13.82;;;;;;;;;;10359912;28;20037;-78
2023/10/29 20:26:19;;;;;;;28.73;14.80;;;;;;;;;;10379718;28;20034;-77
2023/10/29 20:31:20;;;;;;;30.10;15.73;;;;;;;;;;10362196;28;20061;-77
2023/10/29 20:36:21;;;;;;;155.70;99.97;;;;;;;;;;10362787;28;20053;-80
2023/10/29 20:41:22;;;;;;;180.07;119.00;;;;;;;;;;10363127;28;20580;-77
2023/10/29 20:46:23;;;;;;;143.93;113.50;;;;;;;;;;10366932;28;20033;-78
2023/10/29 20:51:24;;;;;;;74.38;48.60;;;;;;;;;;10370150;28;20041;-78
2023/10/29 20:56:27;;;;;;;44.58;28.00;;;;;;;;;;10367736;28;20029;-81
2023/10/29 21:01:28;;;;;;;34.28;18.77;;;;;;;;;;10380561;28;20045;-81
2023/10/29 21:06:31;;;;;;;32.88;17.52;;;;;;;;;;10368367;28;20033;-78
2023/10/29 21:11:32;;;;;;;32.95;16.23;;;;;;;;;;10358451;28;20035;-79
2023/10/29 21:16:34;;;;;;;29.30;16.02;;;;;;;;;;10359904;28;20029;-77
2023/10/29 21:21:35;;;;;;;27.10;15.63;;;;;;;;;;10367949;28;20088;-78
2023/10/29 21:26:36;;;;;;;29.93;16.63;;;;;;;;;;10368674;28;20037;-80
2023/10/29 21:31:37;;;;;;;41.70;22.03;;;;;;;;;;10366388;28;20435;-78
2023/10/29 21:36:38;;;;;;;32.73;18.57;;;;;;;;;;10375322;28;20089;-80
2023/10/29 21:41:39;;;;;;;28.27;16.73;;;;;;;;;;10349614;28;20129;-77
2023/10/29 21:46:40;;;;;;;37.75;20.45;;;;;;;;;;10371396;28;20034;-77
2023/10/29 21:51:41;;;;;;;48.73;22.20;;;;;;;;;;10367387;28;20038;-77
2023/10/29 21:56:42;;;;;;;39.00;20.47;;;;;;;;;;10366740;28;20042;-81
2023/10/29 22:01:43;;;;;;;34.33;17.30;;;;;;;;;;10361662;28;20769;-81
2023/10/29 22:06:44;;;;;;;30.27;16.73;;;;;;;;;;10359559;28;20121;-80
2023/10/29 22:11:45;;;;;;;30.55;16.55;;;;;;;;;;10374825;28;20047;-78
2023/10/29 22:16:46;;;;;;;32.73;17.07;;;;;;;;;;10375538;28;20048;-77
2023/10/29 22:21:47;;;;;;;35.20;19.33;;;;;;;;;;10361799;28;20034;-78
2023/10/29 22:26:48;;;;;;;32.30;16.85;;;;;;;;;;10365908;28;20065;-77
2023/10/29 22:31:49;;;;;;;34.00;18.15;;;;;;;;;;10367682;28;20117;-78
2023/10/29 22:36:50;;;;;;;42.77;20.03;;;;;;;;;;10365458;28;20529;-77
2023/10/29 22:41:51;;;;;;;38.00;19.77;;;;;;;;;;10364717;28;20026;-82
2023/10/29 22:46:52;;;;;;;40.55;21.15;;;;;;;;;;10374086;28;20022;-79
2023/10/29 22:51:53;;;;;;;56.00;29.33;;;;;;;;;;10366609;28;20108;-77
2023/10/29 22:56:54;;;;;;;56.75;28.90;;;;;;;;;;10360231;28;20096;-78
2023/10/29 23:01:55;;;;;;;45.60;23.58;;;;;;;;;;10366024;28;20033;-78
2023/10/29 23:06:56;;;;;;;33.77;16.03;;;;;;;;;;10364391;28;20030;-77
2023/10/29 23:11:57;;;;;;;28.17;15.10;;;;;;;;;;10363743;28;20030;-80
2023/10/29 23:16:58;;;;;;;29.58;15.20;;;;;;;;;;10379056;28;20839;-81
2023/10/29 23:21:59;;;;;;;26.37;14.00;;;;;;;;;;10369572;28;20046;-81
2023/10/29 23:27:00;;;;;;;30.10;15.20;;;;;;;;;;10370966;28;20048;-77
2023/10/29 23:32:01;;;;;;;28.90;14.95;;;;;;;;;;10362665;28;20034;-78
2023/10/29 23:37:03;;;;;;;26.00;14.63;;;;;;;;;;10362848;28;20045;-78
2023/10/29 23:42:04;;;;;;;26.13;15.50;;;;;;;;;;10349813;28;20243;-77
2023/10/29 23:47:05;;;;;;;31.87;16.63;;;;;;;;;;10363897;28;20076;-78
2023/10/29 23:52:06;;;;;;;33.43;17.90;;;;;;;;;;10362170;28;20481;-80
2023/10/29 23:57:07;;;;;;;28.07;15.13;;;;;;;;;;10362145;28;20041;-77
